PIC Brief
Powered by WingX® Technology

WingX Pro7 for iPad now with IAP Routing   Click for AppStore

Airport Status Wx Images Instructions Send feedback
Apt, Navaid, Fix, Name, City, Route, FAR:
N-Number:

KCUB - Jim Hamilton L B Owens

Communications
ASOS:119.675   803-929-0665
Clearance:124.4
CTAF:122.8
Columbia App:133.4
Location
Sectional:Charlotte
State:S. Carolina (SC)
City:2nm S of Columbia
Latitude:33' 58" 13.700°N [33.970472°]
Longitude:80' 59" 42.900°W [-80.995250°]
Elevation:193'
Variation:6W
Map  Satellite  Hybrid
Attendance
All months, All days, 6am-10pm
Services
Fuel Available:100LL, Jet A
Airframe Repair:Major
Powerplant Repair:Major
Bottled Oxygen:None
Bulk Oxygen:High/Low
Runways
13/315,011' x 75'Asphalt
Comments

Tower Comments

None

Comments

None
Charts
Instrument Approach Procedures
Minimums
KCUB Information
Temperature: 13°C (56°F)
Dewpoint: 9°C (49°F)
Density Altitude:-168' (-361')
Hover over METAR or TAF to decode
METAR
KCUB 180453Z AUTO 00000KT 10SM CLR 13/09 A3010 RMK AO2 SLP191 T01330094 402110133
TAF
KCUB 180347Z 1804/1824 VRB05KT P6SM SCT050 BKN090 WS020/25035KT
FM180600 26005KT P6SM BKN035
FM180900 32005KT P6SM SCT040 BKN090
FM181800 09005KT P6SM OVC050
NOTAMS
Click here

RADAR

Satellite

VFR Sectional

IFR Chart

AIRMETs
Mr. Falken you picked a hell of a day for a visit!
Copyright© Hilton Software LLC 2008-2016